Time;durP1;ratioP1;P1;durP2;ratioP2;P2;SDS_P1;SDS_P2;PMS_P1;PMS_P2;Temp;Humidity;BMP_temperature;BMP_pressure;BME280_temperature;BME280_humidity;BME280_pressure;Samples;Min_cycle;Max_cycle;Signal;HPM_P1;HPM_P2
2023/11/24 00:01:19;;;;;;;2.35;1.50;;;;;;;;;;5823093;28;20046;-71
2023/11/24 00:04:10;;;;;;;4.28;1.60;;;;;;;;;;5838820;28;20042;-71
2023/11/24 00:07:03;;;;;;;0.32;0.32;;;;;;;;;;5839775;28;20045;-72
2023/11/24 00:09:55;;;;;;;0.80;0.80;;;;;;;;;;5855674;28;20046;-72
2023/11/24 00:12:46;;;;;;;0.70;0.70;;;;;;;;;;5823815;28;20056;-70
2023/11/24 00:15:37;;;;;;;1.65;1.30;;;;;;;;;;5835861;28;20176;-71
2023/11/24 00:18:28;;;;;;;1.75;1.27;;;;;;;;;;5852342;28;20054;-71
2023/11/24 00:21:19;;;;;;;3.00;1.95;;;;;;;;;;5819725;28;20045;-71
2023/11/24 00:24:10;;;;;;;1.10;0.65;;;;;;;;;;5838502;28;20067;-71
2023/11/24 00:27:01;;;;;;;0.80;0.80;;;;;;;;;;5839398;28;20455;-72
2023/11/24 00:29:52;;;;;;;4.57;1.00;;;;;;;;;;5840040;28;20056;-70
2023/11/24 00:32:44;;;;;;;1.25;0.98;;;;;;;;;;5824037;28;20046;-70
2023/11/24 00:35:35;;;;;;;1.17;0.73;;;;;;;;;;5838388;28;20069;-71
2023/11/24 00:38:27;;;;;;;1.15;1.10;;;;;;;;;;5837006;28;20042;-70
2023/11/24 00:41:19;;;;;;;1.05;1.05;;;;;;;;;;5816342;28;20046;-71
2023/11/24 00:44:10;;;;;;;0.52;0.52;;;;;;;;;;5823622;28;20049;-70
2023/11/24 00:47:01;;;;;;;0.85;0.85;;;;;;;;;;5837886;28;20049;-71
2023/11/24 00:49:52;;;;;;;1.75;1.20;;;;;;;;;;5825537;28;20594;-70
2023/11/24 00:52:43;;;;;;;0.93;0.88;;;;;;;;;;5815606;28;20073;-71
2023/11/24 00:55:33;;;;;;;2.97;0.65;;;;;;;;;;5816809;28;20081;-70
2023/11/24 00:58:24;;;;;;;2.17;0.70;;;;;;;;;;5799380;28;20050;-71
2023/11/24 01:01:15;;;;;;;1.25;1.15;;;;;;;;;;5816283;28;20054;-71
2023/11/24 01:04:07;;;;;;;1.10;1.00;;;;;;;;;;5825375;28;20061;-72
2023/11/24 01:06:58;;;;;;;2.67;1.23;;;;;;;;;;5816374;28;20096;-70
2023/11/24 01:09:49;;;;;;;2.45;1.20;;;;;;;;;;5816712;28;20590;-70
2023/11/24 01:12:40;;;;;;;1.02;1.02;;;;;;;;;;5798877;28;20062;-70
2023/11/24 01:15:31;;;;;;;3.63;1.75;;;;;;;;;;5816340;28;20042;-71
2023/11/24 01:18:25;;;;;;;4.18;2.58;;;;;;;;;;5830655;28;20054;-70
2023/11/24 01:21:17;;;;;;;2.67;1.45;;;;;;;;;;5815780;28;20516;-70
2023/11/24 01:24:08;;;;;;;0.95;0.80;;;;;;;;;;5828303;28;20097;-71
2023/11/24 01:26:59;;;;;;;0.52;0.52;;;;;;;;;;5815915;28;20097;-69
2023/11/24 01:29:50;;;;;;;0.98;0.50;;;;;;;;;;5828637;28;20506;-69
2023/11/24 01:32:41;;;;;;;0.52;0.52;;;;;;;;;;5829544;28;20412;-70
2023/11/24 01:35:32;;;;;;;1.02;0.95;;;;;;;;;;5814502;28;20050;-70
2023/11/24 01:38:23;;;;;;;0.80;0.80;;;;;;;;;;5814309;28;20050;-71
2023/11/24 01:41:14;;;;;;;0.65;0.65;;;;;;;;;;5799057;28;20038;-71
2023/11/24 01:44:05;;;;;;;0.75;0.75;;;;;;;;;;5825104;28;20050;-72
2023/11/24 01:46:56;;;;;;;0.70;0.70;;;;;;;;;;5816660;28;20042;-70
2023/11/24 01:49:47;;;;;;;0.40;0.40;;;;;;;;;;5827470;28;20048;-71
2023/11/24 01:52:39;;;;;;;0.82;0.65;;;;;;;;;;5832680;28;20122;-70
2023/11/24 01:55:31;;;;;;;0.22;0.22;;;;;;;;;;5833489;28;20046;-70
2023/11/24 01:58:21;;;;;;;0.22;0.22;;;;;;;;;;5837883;28;20057;-71
2023/11/24 02:01:13;;;;;;;0.40;0.40;;;;;;;;;;5818881;28;20039;-70
2023/11/24 02:04:04;;;;;;;0.75;0.47;;;;;;;;;;5818979;28;20050;-71
2023/11/24 02:06:57;;;;;;;0.40;0.40;;;;;;;;;;5819022;28;20050;-69
2023/11/24 02:09:48;;;;;;;0.30;0.30;;;;;;;;;;5831909;28;20503;-71
2023/11/24 02:12:39;;;;;;;0.20;0.20;;;;;;;;;;5836605;28;20050;-70
2023/11/24 02:15:30;;;;;;;0.30;0.30;;;;;;;;;;5837160;28;20148;-70
2023/11/24 02:18:20;;;;;;;0.75;0.28;;;;;;;;;;5841985;28;21364;-70
2023/11/24 02:21:11;;;;;;;0.20;0.20;;;;;;;;;;5840967;28;20049;-70
2023/11/24 02:24:05;;;;;;;0.22;0.22;;;;;;;;;;5825310;28;20053;-71
2023/11/24 02:26:56;;;;;;;0.40;0.40;;;;;;;;;;5818668;28;20055;-69
2023/11/24 02:29:50;;;;;;;0.15;0.15;;;;;;;;;;5817780;28;20042;-70
2023/11/24 02:32:41;;;;;;;0.10;0.10;;;;;;;;;;5817700;28;20046;-71
2023/11/24 02:35:32;;;;;;;0.10;0.10;;;;;;;;;;5836603;28;20057;-71
2023/11/24 02:38:23;;;;;;;0.10;0.10;;;;;;;;;;5841962;28;20046;-71
2023/11/24 02:41:17;;;;;;;0.10;0.10;;;;;;;;;;5842084;28;20492;-71
2023/11/24 02:44:07;;;;;;;0.10;0.10;;;;;;;;;;5834769;28;20064;-71
2023/11/24 02:46:59;;;;;;;0.70;0.70;;;;;;;;;;5841368;28;20435;-70
2023/11/24 02:49:49;;;;;;;0.20;0.20;;;;;;;;;;5840667;28;20498;-70
2023/11/24 02:52:40;;;;;;;0.25;0.25;;;;;;;;;;5841065;28;20053;-71
2023/11/24 02:55:31;;;;;;;0.77;0.77;;;;;;;;;;5819134;28;20054;-71
2023/11/24 02:58:25;;;;;;;0.45;0.45;;;;;;;;;;5801829;28;20389;-70
2023/11/24 03:01:15;;;;;;;0.10;0.10;;;;;;;;;;5819266;28;20046;-70
2023/11/24 03:04:07;;;;;;;0.17;0.17;;;;;;;;;;5825424;28;20050;-71
2023/11/24 03:06:57;;;;;;;0.20;0.20;;;;;;;;;;5842496;28;20133;-71
2023/11/24 03:09:48;;;;;;;0.20;0.20;;;;;;;;;;5840571;28;20133;-71
2023/11/24 03:12:39;;;;;;;0.20;0.20;;;;;;;;;;5840264;28;20046;-71
2023/11/24 03:15:31;;;;;;;0.45;0.45;;;;;;;;;;5837062;28;20046;-72
2023/11/24 03:18:23;;;;;;;0.30;0.30;;;;;;;;;;5839963;28;20050;-71
2023/11/24 03:21:13;;;;;;;0.30;0.30;;;;;;;;;;5840297;28;20060;-70
2023/11/24 03:24:04;;;;;;;0.20;0.20;;;;;;;;;;5837709;28;20049;-71
2023/11/24 03:26:55;;;;;;;0.40;0.40;;;;;;;;;;5840646;28;20061;-71
2023/11/24 03:29:46;;;;;;;0.10;0.10;;;;;;;;;;5839807;28;20050;-71
2023/11/24 03:32:37;;;;;;;0.30;0.30;;;;;;;;;;5841290;28;20049;-70
2023/11/24 03:35:28;;;;;;;0.10;0.10;;;;;;;;;;5820802;28;20042;-71
2023/11/24 03:38:19;;;;;;;1.13;0.73;;;;;;;;;;5817959;28;20054;-70
2023/11/24 03:41:10;;;;;;;0.82;0.60;;;;;;;;;;5817000;28;20057;-71
2023/11/24 03:44:01;;;;;;;1.92;0.70;;;;;;;;;;5817741;28;20054;-71
2023/11/24 03:46:52;;;;;;;0.30;0.30;;;;;;;;;;5817531;28;20065;-71
2023/11/24 03:49:43;;;;;;;0.28;0.28;;;;;;;;;;5817364;28;20089;-71
2023/11/24 03:52:34;;;;;;;0.30;0.30;;;;;;;;;;5816652;28;20442;-70
2023/11/24 03:55:25;;;;;;;0.43;0.30;;;;;;;;;;5834559;28;20045;-69
2023/11/24 03:58:16;;;;;;;2.92;0.82;;;;;;;;;;5838616;28;20056;-70
2023/11/24 04:01:12;;;;;;;0.30;0.30;;;;;;;;;;5816721;28;20050;-71
2023/11/24 04:04:04;;;;;;;0.28;0.28;;;;;;;;;;5818607;28;20048;-72
2023/11/24 04:06:54;;;;;;;0.47;0.30;;;;;;;;;;5801096;28;20170;-71
2023/11/24 04:09:45;;;;;;;0.20;0.20;;;;;;;;;;5817499;28;20392;-71
2023/11/24 04:12:36;;;;;;;0.20;0.20;;;;;;;;;;5817563;28;20073;-71
2023/11/24 04:15:27;;;;;;;0.30;0.30;;;;;;;;;;5817779;28;20050;-71
2023/11/24 04:18:18;;;;;;;0.20;0.20;;;;;;;;;;5835061;28;20064;-71
2023/11/24 04:21:08;;;;;;;0.32;0.22;;;;;;;;;;5816051;28;20527;-72
2023/11/24 04:23:59;;;;;;;0.28;0.28;;;;;;;;;;5822077;28;20046;-72
2023/11/24 04:26:50;;;;;;;0.45;0.45;;;;;;;;;;5838976;28;20042;-71
2023/11/24 04:29:41;;;;;;;0.90;0.68;;;;;;;;;;5838159;28;20116;-70
2023/11/24 04:32:31;;;;;;;1.15;1.05;;;;;;;;;;5840003;28;20046;-71
2023/11/24 04:35:23;;;;;;;1.40;1.23;;;;;;;;;;5838203;28;20552;-71
2023/11/24 04:38:14;;;;;;;0.35;0.35;;;;;;;;;;5830419;28;20054;-72
2023/11/24 04:41:06;;;;;;;0.30;0.30;;;;;;;;;;5821699;28;20156;-71
2023/11/24 04:43:57;;;;;;;0.20;0.20;;;;;;;;;;5837028;28;20408;-72
2023/11/24 04:46:48;;;;;;;0.35;0.35;;;;;;;;;;5837997;28;20053;-70
2023/11/24 04:49:39;;;;;;;6.50;1.65;;;;;;;;;;5839065;28;20049;-71
2023/11/24 04:52:30;;;;;;;0.65;0.65;;;;;;;;;;5837263;28;20565;-70
2023/11/24 04:55:21;;;;;;;1.75;1.27;;;;;;;;;;5837791;28;20061;-71
2023/11/24 04:58:11;;;;;;;1.77;0.85;;;;;;;;;;5838101;28;20046;-71
2023/11/24 05:01:02;;;;;;;0.45;0.45;;;;;;;;;;5837865;28;20495;-71
2023/11/24 05:03:55;;;;;;;0.22;0.22;;;;;;;;;;5838560;28;20046;-71
2023/11/24 05:06:46;;;;;;;0.40;0.40;;;;;;;;;;5837809;28;20046;-71
2023/11/24 05:09:36;;;;;;;4.95;1.00;;;;;;;;;;5838078;28;20095;-70
2023/11/24 05:12:27;;;;;;;0.22;0.22;;;;;;;;;;5837677;28;20160;-71
2023/11/24 05:15:18;;;;;;;1.20;0.68;;;;;;;;;;5839024;28;20061;-71
2023/11/24 05:18:09;;;;;;;0.20;0.20;;;;;;;;;;5838186;28;20061;-71
2023/11/24 05:20:59;;;;;;;0.52;0.50;;;;;;;;;;5839355;28;20136;-71
2023/11/24 05:23:50;;;;;;;0.60;0.60;;;;;;;;;;5839226;28;20050;-70
2023/11/24 05:26:41;;;;;;;0.50;0.50;;;;;;;;;;5837524;28;20041;-70
2023/11/24 05:29:32;;;;;;;1.95;0.98;;;;;;;;;;5838880;28;20415;-71
2023/11/24 05:32:23;;;;;;;0.82;0.57;;;;;;;;;;5839867;28;20113;-72
2023/11/24 05:35:14;;;;;;;0.30;0.30;;;;;;;;;;5843352;28;20053;-72
2023/11/24 05:38:05;;;;;;;1.27;0.95;;;;;;;;;;5843295;28;20060;-70
2023/11/24 05:40:56;;;;;;;0.40;0.40;;;;;;;;;;5843734;28;20042;-70
2023/11/24 05:43:47;;;;;;;0.43;0.30;;;;;;;;;;5841917;28;20046;-72
2023/11/24 05:46:41;;;;;;;3.10;1.40;;;;;;;;;;5841658;28;20065;-71
2023/11/24 05:49:33;;;;;;;1.13;1.02;;;;;;;;;;5841571;28;20466;-72
2023/11/24 05:52:25;;;;;;;1.83;1.38;;;;;;;;;;5841562;28;20129;-71
2023/11/24 05:55:16;;;;;;;1.38;1.08;;;;;;;;;;5841486;28;20054;-71
2023/11/24 05:58:08;;;;;;;0.40;0.40;;;;;;;;;;5843022;28;20380;-71
2023/11/24 06:01:00;;;;;;;0.82;0.50;;;;;;;;;;5841905;28;20077;-71
2023/11/24 06:03:51;;;;;;;2.22;1.23;;;;;;;;;;5841772;28;20458;-71
2023/11/24 06:06:42;;;;;;;1.42;0.98;;;;;;;;;;5841219;28;20096;-71
2023/11/24 06:09:35;;;;;;;2.05;1.80;;;;;;;;;;5841195;28;20045;-71
2023/11/24 06:12:28;;;;;;;1.08;0.98;;;;;;;;;;5841148;28;20078;-70
2023/11/24 06:15:19;;;;;;;2.72;0.63;;;;;;;;;;5842423;28;20503;-71
2023/11/24 06:18:10;;;;;;;2.28;1.13;;;;;;;;;;5842575;28;20049;-72
2023/11/24 06:21:01;;;;;;;3.25;2.00;;;;;;;;;;5857323;28;20115;-72
2023/11/24 06:23:52;;;;;;;0.93;0.52;;;;;;;;;;5842915;28;20042;-71
2023/11/24 06:26:43;;;;;;;0.68;0.68;;;;;;;;;;5841069;28;20069;-72
2023/11/24 06:29:34;;;;;;;3.70;1.30;;;;;;;;;;5840773;28;20423;-71
2023/11/24 06:32:25;;;;;;;0.20;0.20;;;;;;;;;;5842274;28;20045;-71
2023/11/24 06:35:16;;;;;;;0.93;0.80;;;;;;;;;;5842223;28;20045;-71
2023/11/24 06:38:07;;;;;;;1.38;1.27;;;;;;;;;;5840694;28;20124;-72
2023/11/24 06:40:58;;;;;;;0.45;0.45;;;;;;;;;;5841140;28;20041;-71
2023/11/24 06:43:49;;;;;;;0.75;0.75;;;;;;;;;;5839699;28;20056;-72
2023/11/24 06:46:39;;;;;;;1.73;1.25;;;;;;;;;;5840197;28;20499;-72
2023/11/24 06:49:32;;;;;;;0.93;0.93;;;;;;;;;;5841463;28;20050;-72
2023/11/24 06:52:23;;;;;;;1.08;1.00;;;;;;;;;;5840350;28;20042;-72
2023/11/24 06:55:15;;;;;;;1.92;0.52;;;;;;;;;;5840183;28;20046;-71
2023/11/24 06:58:07;;;;;;;0.95;0.93;;;;;;;;;;5840309;28;20046;-71
2023/11/24 07:00:58;;;;;;;1.15;0.68;;;;;;;;;;5841769;28;20057;-71
2023/11/24 07:03:49;;;;;;;0.65;0.65;;;;;;;;;;5840107;28;20128;-71
2023/11/24 07:06:39;;;;;;;5.78;1.00;;;;;;;;;;5840047;28;20389;-72
2023/11/24 07:09:30;;;;;;;0.45;0.45;;;;;;;;;;5823765;28;20052;-71
2023/11/24 07:12:21;;;;;;;6.13;1.20;;;;;;;;;;5841233;28;20124;-72
2023/11/24 07:15:12;;;;;;;0.40;0.40;;;;;;;;;;5841204;28;20042;-71
2023/11/24 07:18:03;;;;;;;0.50;0.50;;;;;;;;;;5839684;28;20050;-71
2023/11/24 07:20:54;;;;;;;3.05;0.95;;;;;;;;;;5841564;28;20626;-71
2023/11/24 07:23:45;;;;;;;0.85;0.85;;;;;;;;;;5839782;28;20535;-71
2023/11/24 07:26:36;;;;;;;0.93;0.60;;;;;;;;;;5840990;28;20132;-71
2023/11/24 07:29:28;;;;;;;6.00;1.65;;;;;;;;;;5840547;28;20117;-72
2023/11/24 07:32:23;;;;;;;2.28;1.00;;;;;;;;;;5839478;28;20053;-70
2023/11/24 07:35:14;;;;;;;0.95;0.77;;;;;;;;;;5840677;28;20049;-71
2023/11/24 07:38:05;;;;;;;1.80;0.95;;;;;;;;;;5840677;28;20519;-72
2023/11/24 07:40:56;;;;;;;5.57;1.55;;;;;;;;;;5829601;28;20119;-71
2023/11/24 07:43:47;;;;;;;0.25;0.25;;;;;;;;;;5815739;28;20059;-72
2023/11/24 07:46:38;;;;;;;0.95;0.73;;;;;;;;;;5817460;28;20053;-71
2023/11/24 07:49:29;;;;;;;0.82;0.65;;;;;;;;;;5817463;28;20042;-71
2023/11/24 07:52:19;;;;;;;3.58;1.20;;;;;;;;;;5816198;28;20051;-71
2023/11/24 07:55:13;;;;;;;1.15;1.05;;;;;;;;;;5815819;28;20503;-72
2023/11/24 07:58:04;;;;;;;2.63;0.90;;;;;;;;;;5817629;28;20050;-70
2023/11/24 08:00:55;;;;;;;0.95;0.57;;;;;;;;;;5832614;28;20496;-72
2023/11/24 08:03:45;;;;;;;6.18;1.70;;;;;;;;;;5817426;28;20046;-71
2023/11/24 08:06:36;;;;;;;2.05;1.73;;;;;;;;;;5817356;28;20046;-72
2023/11/24 08:09:27;;;;;;;1.08;1.00;;;;;;;;;;5817235;28;20121;-72
2023/11/24 08:12:18;;;;;;;0.57;0.57;;;;;;;;;;5815986;28;20157;-71
2023/11/24 08:15:09;;;;;;;1.73;1.58;;;;;;;;;;5817063;28;20061;-71
2023/11/24 08:18:00;;;;;;;3.28;1.30;;;;;;;;;;5817761;28;20046;-71
2023/11/24 08:20:51;;;;;;;1.35;1.00;;;;;;;;;;5815965;28;20046;-72
2023/11/24 08:23:42;;;;;;;1.27;0.93;;;;;;;;;;5817033;28;20105;-72
2023/11/24 08:26:33;;;;;;;2.85;1.52;;;;;;;;;;5815615;28;20050;-71
2023/11/24 08:29:24;;;;;;;0.82;0.77;;;;;;;;;;5799595;28;20042;-73
2023/11/24 08:32:15;;;;;;;1.13;1.02;;;;;;;;;;5831887;28;20065;-71
2023/11/24 08:35:07;;;;;;;1.67;0.98;;;;;;;;;;5816562;28;20049;-73
2023/11/24 08:37:58;;;;;;;2.22;1.52;;;;;;;;;;5817391;28;20389;-72
2023/11/24 08:40:49;;;;;;;1.48;0.82;;;;;;;;;;5815277;28;20427;-71
2023/11/24 08:43:40;;;;;;;1.20;1.10;;;;;;;;;;5815467;28;20057;-72
2023/11/24 08:46:31;;;;;;;1.55;1.05;;;;;;;;;;5816684;28;20455;-71
2023/11/24 08:49:22;;;;;;;1.83;1.30;;;;;;;;;;5816516;28;20346;-71
2023/11/24 08:52:13;;;;;;;1.77;1.40;;;;;;;;;;5816688;28;20042;-70
2023/11/24 08:55:06;;;;;;;1.50;0.93;;;;;;;;;;5815163;28;20499;-72
2023/11/24 08:57:59;;;;;;;0.63;0.55;;;;;;;;;;5815606;28;20124;-72
2023/11/24 09:00:50;;;;;;;2.22;1.15;;;;;;;;;;5816714;28;20038;-72
2023/11/24 09:03:41;;;;;;;1.08;0.82;;;;;;;;;;5816654;28;20061;-71
2023/11/24 09:06:35;;;;;;;0.55;0.55;;;;;;;;;;5815004;28;20050;-72
2023/11/24 09:09:27;;;;;;;1.58;1.17;;;;;;;;;;5820396;28;20042;-72
2023/11/24 09:12:18;;;;;;;8.02;2.47;;;;;;;;;;5819677;28;20054;-72
2023/11/24 09:15:10;;;;;;;1.17;1.08;;;;;;;;;;5820931;28;20054;-72
2023/11/24 09:18:01;;;;;;;7.57;2.15;;;;;;;;;;5819601;28;20065;-73
2023/11/24 09:20:55;;;;;;;4.95;1.60;;;;;;;;;;5821489;28;20057;-71
2023/11/24 09:23:46;;;;;;;1.63;0.93;;;;;;;;;;5819921;28;20448;-71
2023/11/24 09:26:37;;;;;;;1.08;0.88;;;;;;;;;;5819459;28;20038;-73
2023/11/24 09:29:28;;;;;;;1.35;1.25;;;;;;;;;;5820538;28;20393;-72
2023/11/24 09:32:19;;;;;;;4.63;2.83;;;;;;;;;;5820771;28;20058;-72
2023/11/24 09:35:10;;;;;;;1.75;1.27;;;;;;;;;;5819135;28;20050;-72
2023/11/24 09:38:02;;;;;;;0.40;0.40;;;;;;;;;;5820657;28;20125;-73
2023/11/24 09:40:54;;;;;;;0.47;0.47;;;;;;;;;;5819800;28;20054;-72
2023/11/24 09:43:45;;;;;;;4.22;0.98;;;;;;;;;;5819128;28;20050;-71
2023/11/24 09:46:41;;;;;;;2.03;1.05;;;;;;;;;;5819122;28;20400;-72
2023/11/24 09:49:42;;;;;;;2.03;1.00;;;;;;;;;;5820165;28;20042;-71
2023/11/24 09:52:33;;;;;;;0.75;0.75;;;;;;;;;;5819289;28;20073;-71
2023/11/24 09:55:25;;;;;;;2.30;1.33;;;;;;;;;;5820418;28;20046;-72
2023/11/24 09:58:20;;;;;;;2.10;1.30;;;;;;;;;;5819326;28;20629;-72
2023/11/24 10:01:19;;;;;;;0.47;0.47;;;;;;;;;;5820448;28;20047;-73
2023/11/24 10:04:10;;;;;;;0.73;0.73;;;;;;;;;;5819040;28;20061;-72
2023/11/24 10:07:01;;;;;;;5.72;1.25;;;;;;;;;;5820040;28;20411;-73
2023/11/24 10:09:53;;;;;;;1.38;1.20;;;;;;;;;;5819201;28;20491;-72
2023/11/24 10:12:43;;;;;;;1.52;0.70;;;;;;;;;;5818423;28;20042;-72
2023/11/24 10:15:34;;;;;;;4.43;1.60;;;;;;;;;;5818438;28;20046;-72
2023/11/24 10:18:25;;;;;;;6.78;1.15;;;;;;;;;;5819511;28;20054;-71
2023/11/24 10:21:16;;;;;;;5.07;0.95;;;;;;;;;;5818344;28;20054;-72
2023/11/24 10:24:23;;;;;;;1.50;1.17;;;;;;;;;;5818508;28;20136;-71
2023/11/24 10:27:22;;;;;;;0.93;0.88;;;;;;;;;;5818485;28;20061;-73
2023/11/24 10:30:14;;;;;;;6.35;2.05;;;;;;;;;;5818280;28;20133;-72
2023/11/24 10:33:05;;;;;;;0.43;0.43;;;;;;;;;;5818430;28;20038;-71
2023/11/24 10:35:58;;;;;;;1.13;0.73;;;;;;;;;;5818716;28;20054;-71
2023/11/24 10:38:59;;;;;;;1.17;0.75;;;;;;;;;;5818471;28;20042;-70
2023/11/24 10:41:51;;;;;;;1.15;0.90;;;;;;;;;;5818339;28;20504;-72
2023/11/24 10:44:45;;;;;;;2.63;0.80;;;;;;;;;;5817997;28;20055;-71
2023/11/24 10:47:45;;;;;;;6.80;0.70;;;;;;;;;;5818132;28;20046;-71
2023/11/24 10:50:41;;;;;;;0.40;0.40;;;;;;;;;;5817954;28;20042;-71
2023/11/24 10:53:35;;;;;;;1.38;1.17;;;;;;;;;;5817684;28;20441;-72
2023/11/24 10:56:31;;;;;;;2.72;0.98;;;;;;;;;;5817630;28;20046;-73
2023/11/24 10:59:23;;;;;;;2.90;2.10;;;;;;;;;;5817903;28;20046;-72
2023/11/24 11:02:15;;;;;;;3.13;1.58;;;;;;;;;;5818986;28;20046;-70
2023/11/24 11:05:53;;;;;;;1.45;1.30;;;;;;;;;;5817457;28;20057;-72
2023/11/24 11:08:56;;;;;;;0.88;0.88;;;;;;;;;;5818889;28;20046;-71
2023/11/24 11:12:29;;;;;;;6.45;1.40;;;;;;;;;;5817393;28;20072;-71
2023/11/24 11:15:25;;;;;;;11.15;1.63;;;;;;;;;;5818339;28;20046;-73
2023/11/24 11:18:15;;;;;;;0.77;0.57;;;;;;;;;;5817345;28;20057;-72
2023/11/24 11:21:37;;;;;;;2.55;0.90;;;;;;;;;;5817179;28;20415;-73
2023/11/24 11:24:31;;;;;;;1.13;1.02;;;;;;;;;;5818106;28;20070;-71
2023/11/24 11:27:24;;;;;;;1.50;1.27;;;;;;;;;;5817404;28;20065;-71
2023/11/24 11:30:27;;;;;;;1.10;1.00;;;;;;;;;;5816332;28;20054;-72
2023/11/24 11:33:22;;;;;;;1.83;1.38;;;;;;;;;;5818351;28;20050;-71
2023/11/24 11:36:15;;;;;;;9.68;1.05;;;;;;;;;;5816857;28;20050;-72
2023/11/24 11:39:06;;;;;;;3.75;0.73;;;;;;;;;;5818037;28;20060;-72
2023/11/24 11:41:57;;;;;;;2.35;1.55;;;;;;;;;;5801266;28;20046;-72
2023/11/24 11:44:56;;;;;;;0.63;0.63;;;;;;;;;;5817895;28;20046;-72
2023/11/24 11:47:51;;;;;;;1.42;1.05;;;;;;;;;;5816973;28;20435;-71
2023/11/24 11:51:02;;;;;;;5.90;1.73;;;;;;;;;;5816225;28;20065;-72
2023/11/24 11:53:53;;;;;;;1.05;1.00;;;;;;;;;;5816799;28;20038;-72
2023/11/24 11:56:44;;;;;;;1.95;0.75;;;;;;;;;;5816554;28;20052;-71
2023/11/24 11:59:35;;;;;;;1.05;0.60;;;;;;;;;;5816395;28;20061;-73
2023/11/24 12:02:26;;;;;;;3.40;2.35;;;;;;;;;;5817514;28;20049;-73
2023/11/24 12:05:18;;;;;;;1.88;1.10;;;;;;;;;;5817459;28;20464;-73
2023/11/24 12:08:10;;;;;;;3.30;1.50;;;;;;;;;;5816275;28;20057;-73
2023/11/24 12:11:01;;;;;;;0.45;0.45;;;;;;;;;;5816119;28;20061;-73
2023/11/24 12:13:52;;;;;;;1.75;1.05;;;;;;;;;;5816476;28;20050;-72
2023/11/24 12:16:43;;;;;;;1.27;0.80;;;;;;;;;;5832171;28;20046;-72
2023/11/24 12:19:35;;;;;;;2.03;0.93;;;;;;;;;;5815591;28;20203;-73
2023/11/24 12:22:30;;;;;;;2.95;0.70;;;;;;;;;;5815921;28;20050;-73
2023/11/24 12:25:21;;;;;;;2.15;1.67;;;;;;;;;;5815666;28;20058;-72
2023/11/24 12:28:13;;;;;;;2.90;1.45;;;;;;;;;;5815622;28;20429;-71
2023/11/24 12:31:04;;;;;;;2.05;1.27;;;;;;;;;;5816980;28;20042;-73
2023/11/24 12:33:55;;;;;;;1.05;0.75;;;;;;;;;;5816061;28;20054;-73
2023/11/24 12:36:53;;;;;;;2.15;1.75;;;;;;;;;;5815649;28;20038;-73
2023/11/24 12:39:44;;;;;;;2.88;1.65;;;;;;;;;;5815664;28;20057;-73
2023/11/24 12:42:35;;;;;;;0.68;0.68;;;;;;;;;;5831773;28;20077;-72
2023/11/24 12:45:27;;;;;;;0.63;0.63;;;;;;;;;;5815292;28;20050;-73
2023/11/24 12:48:23;;;;;;;0.63;0.63;;;;;;;;;;5816748;28;20428;-73
2023/11/24 12:51:15;;;;;;;0.95;0.95;;;;;;;;;;5815244;28;20132;-72
2023/11/24 12:54:06;;;;;;;0.73;0.73;;;;;;;;;;5815227;28;20046;-73
2023/11/24 12:56:57;;;;;;;4.03;1.52;;;;;;;;;;5817006;28;20042;-73
2023/11/24 12:59:48;;;;;;;6.07;2.38;;;;;;;;;;5815131;28;20069;-73
2023/11/24 13:02:43;;;;;;;1.23;1.13;;;;;;;;;;5816472;28;20425;-73
2023/11/24 13:05:36;;;;;;;1.17;0.82;;;;;;;;;;5815252;28;20161;-73
2023/11/24 13:08:26;;;;;;;7.38;1.33;;;;;;;;;;5816341;28;20096;-73
2023/11/24 13:11:17;;;;;;;1.27;1.15;;;;;;;;;;5814998;28;20504;-73
2023/11/24 13:14:10;;;;;;;1.20;1.10;;;;;;;;;;5812936;28;20066;-73
2023/11/24 13:17:03;;;;;;;1.00;0.65;;;;;;;;;;5827479;28;20046;-72
2023/11/24 13:19:54;;;;;;;0.95;0.65;;;;;;;;;;5838843;28;20050;-72
2023/11/24 13:22:45;;;;;;;2.38;0.82;;;;;;;;;;5838627;28;20510;-71
2023/11/24 13:25:36;;;;;;;2.28;1.20;;;;;;;;;;5837995;28;20065;-72
2023/11/24 13:28:29;;;;;;;4.97;0.93;;;;;;;;;;5839983;28;20052;-72
2023/11/24 13:31:21;;;;;;;1.25;0.85;;;;;;;;;;5838471;28;20136;-71
2023/11/24 13:34:15;;;;;;;1.15;0.73;;;;;;;;;;5834718;28;20062;-72
2023/11/24 13:37:10;;;;;;;0.60;0.60;;;;;;;;;;5828106;28;20048;-71
2023/11/24 13:40:01;;;;;;;1.65;1.13;;;;;;;;;;5838012;28;20100;-72
2023/11/24 13:42:53;;;;;;;1.08;1.00;;;;;;;;;;5838910;28;20053;-72
2023/11/24 13:45:44;;;;;;;1.75;1.35;;;;;;;;;;5835953;28;20056;-71
2023/11/24 13:48:35;;;;;;;1.63;1.23;;;;;;;;;;5815616;28;20054;-72
2023/11/24 13:51:27;;;;;;;1.02;1.00;;;;;;;;;;5816522;28;20527;-72
2023/11/24 13:54:18;;;;;;;0.73;0.57;;;;;;;;;;5817032;28;20058;-72
2023/11/24 13:57:09;;;;;;;0.77;0.73;;;;;;;;;;5831824;28;20050;-72
2023/11/24 14:00:00;;;;;;;0.50;0.50;;;;;;;;;;5841444;28;20077;-73
2023/11/24 14:02:51;;;;;;;0.93;0.93;;;;;;;;;;5843585;28;20097;-73
2023/11/24 14:05:43;;;;;;;1.98;1.42;;;;;;;;;;5841441;28;20467;-72
2023/11/24 14:08:38;;;;;;;0.50;0.50;;;;;;;;;;5820541;28;20042;-73
2023/11/24 14:11:30;;;;;;;6.50;1.52;;;;;;;;;;5820771;28;20050;-73
2023/11/24 14:14:21;;;;;;;0.73;0.73;;;;;;;;;;5825517;28;20080;-73
2023/11/24 14:17:14;;;;;;;2.08;1.10;;;;;;;;;;5831992;28;20042;-73
2023/11/24 14:20:06;;;;;;;6.32;1.35;;;;;;;;;;5831527;28;20045;-73
2023/11/24 14:22:57;;;;;;;1.75;1.27;;;;;;;;;;5843806;28;20054;-73
2023/11/24 14:25:50;;;;;;;2.05;1.15;;;;;;;;;;5842800;28;20056;-73
2023/11/24 14:28:41;;;;;;;8.75;2.17;;;;;;;;;;5821032;28;20049;-73
2023/11/24 14:31:33;;;;;;;2.63;1.40;;;;;;;;;;5836924;28;20407;-73
2023/11/24 14:34:24;;;;;;;4.38;1.30;;;;;;;;;;5818893;28;20508;-73
2023/11/24 14:37:17;;;;;;;5.55;3.20;;;;;;;;;;5836407;28;20503;-73
2023/11/24 14:40:14;;;;;;;3.92;3.38;;;;;;;;;;5830311;28;20050;-73
2023/11/24 14:43:14;;;;;;;2.17;1.70;;;;;;;;;;5820528;28;20046;-72
2023/11/24 14:46:11;;;;;;;1.98;0.95;;;;;;;;;;5823423;28;20046;-72
2023/11/24 14:49:03;;;;;;;1.58;1.30;;;;;;;;;;5821368;28;20092;-73
2023/11/24 14:51:54;;;;;;;3.92;2.42;;;;;;;;;;5820118;28;20078;-73
2023/11/24 14:54:47;;;;;;;0.75;0.75;;;;;;;;;;5827389;28;20188;-72
2023/11/24 14:57:38;;;;;;;0.90;0.57;;;;;;;;;;5830926;28;20101;-72
2023/11/24 15:00:33;;;;;;;5.57;1.05;;;;;;;;;;5818811;28;20046;-71
2023/11/24 15:03:24;;;;;;;0.60;0.52;;;;;;;;;;5820466;28;20412;-73
2023/11/24 15:06:15;;;;;;;3.90;0.95;;;;;;;;;;5838697;28;20069;-73
2023/11/24 15:09:06;;;;;;;1.10;0.82;;;;;;;;;;5820072;28;20046;-72
2023/11/24 15:11:57;;;;;;;0.80;0.80;;;;;;;;;;5818168;28;20050;-73
2023/11/24 15:14:48;;;;;;;1.70;1.00;;;;;;;;;;5829190;28;20052;-71
2023/11/24 15:17:39;;;;;;;1.85;1.15;;;;;;;;;;5833863;28;20611;-71
2023/11/24 15:20:32;;;;;;;2.90;1.63;;;;;;;;;;5817524;28;20123;-72
2023/11/24 15:23:23;;;;;;;8.77;1.40;;;;;;;;;;5817611;28;20050;-72
2023/11/24 15:26:14;;;;;;;2.63;1.40;;;;;;;;;;5839594;28;20143;-73
2023/11/24 15:29:06;;;;;;;2.30;1.65;;;;;;;;;;5834558;28;20054;-72
2023/11/24 15:31:57;;;;;;;3.35;1.42;;;;;;;;;;5817879;28;20080;-71
2023/11/24 15:34:51;;;;;;;2.28;1.75;;;;;;;;;;5828326;28;20510;-72
2023/11/24 15:37:42;;;;;;;3.38;1.55;;;;;;;;;;5837420;28;20108;-73
2023/11/24 15:40:33;;;;;;;1.60;1.27;;;;;;;;;;5816211;28;20042;-72
2023/11/24 15:43:23;;;;;;;7.05;1.02;;;;;;;;;;5817270;28;20049;-72
2023/11/24 15:46:17;;;;;;;2.28;1.90;;;;;;;;;;5817650;28;20116;-73
2023/11/24 15:49:15;;;;;;;2.58;1.90;;;;;;;;;;5817239;28;20062;-73
2023/11/24 15:52:08;;;;;;;1.67;1.48;;;;;;;;;;5827778;28;20093;-72
2023/11/24 15:55:00;;;;;;;6.40;1.80;;;;;;;;;;5840002;28;20049;-73
2023/11/24 15:57:51;;;;;;;6.35;1.65;;;;;;;;;;5841232;28;20127;-73
2023/11/24 16:00:46;;;;;;;1.75;1.42;;;;;;;;;;5838767;28;20046;-73
2023/11/24 16:03:38;;;;;;;0.73;0.73;;;;;;;;;;5818017;28;20042;-73
2023/11/24 16:06:29;;;;;;;3.05;0.93;;;;;;;;;;5800778;28;20411;-72
2023/11/24 16:09:21;;;;;;;2.10;1.27;;;;;;;;;;5823716;28;20054;-73
2023/11/24 16:12:13;;;;;;;3.53;1.42;;;;;;;;;;5838787;28;20403;-73
2023/11/24 16:15:05;;;;;;;3.42;1.48;;;;;;;;;;5837379;28;20056;-73
2023/11/24 16:17:56;;;;;;;5.82;1.92;;;;;;;;;;5838809;28;20041;-73
2023/11/24 16:20:48;;;;;;;4.28;2.00;;;;;;;;;;5839951;28;20396;-73
2023/11/24 16:23:39;;;;;;;4.03;2.35;;;;;;;;;;5819302;28;20046;-72
2023/11/24 16:26:30;;;;;;;6.18;3.50;;;;;;;;;;5816323;28;20049;-73
2023/11/24 16:29:21;;;;;;;6.75;2.25;;;;;;;;;;5824103;28;20061;-73
2023/11/24 16:32:12;;;;;;;5.97;2.33;;;;;;;;;;5822563;28;20054;-73
2023/11/24 16:35:08;;;;;;;1.90;1.35;;;;;;;;;;5838252;28;20049;-73
2023/11/24 16:37:59;;;;;;;4.93;3.45;;;;;;;;;;5837934;28;20404;-73
2023/11/24 16:40:50;;;;;;;9.55;3.30;;;;;;;;;;5838080;28;20064;-73
2023/11/24 16:43:40;;;;;;;3.38;2.22;;;;;;;;;;5816365;28;20046;-73
2023/11/24 16:46:32;;;;;;;5.05;2.38;;;;;;;;;;5801777;28;20042;-74
2023/11/24 16:49:23;;;;;;;5.20;1.70;;;;;;;;;;5852007;28;20061;-74
2023/11/24 16:52:14;;;;;;;4.10;2.78;;;;;;;;;;5837530;28;20045;-73
2023/11/24 16:55:07;;;;;;;10.43;5.18;;;;;;;;;;5837928;28;20108;-74
2023/11/24 16:57:58;;;;;;;19.70;10.95;;;;;;;;;;5855187;28;20415;-74
2023/11/24 17:00:49;;;;;;;15.70;7.97;;;;;;;;;;5839401;28;20049;-74
2023/11/24 17:03:41;;;;;;;11.65;5.78;;;;;;;;;;5839507;28;20053;-74
2023/11/24 17:06:32;;;;;;;14.18;6.88;;;;;;;;;;5838077;28;20072;-74
2023/11/24 17:09:23;;;;;;;15.38;6.65;;;;;;;;;;5839352;28;20419;-74
2023/11/24 17:12:14;;;;;;;10.05;6.68;;;;;;;;;;5839454;28;20411;-74